sensor_id;sensor_type;location;lat;lon;timestamp;temperature;humidity
44182;DHT22;30436;48.888;9.202;2022-07-22T00:00:27;24.60;88.00
44182;DHT22;30436;48.888;9.202;2022-07-22T00:02:53;24.60;90.30
44182;DHT22;30436;48.888;9.202;2022-07-22T00:05:18;24.60;89.40
44182;DHT22;30436;48.888;9.202;2022-07-22T00:07:44;24.60;87.90
44182;DHT22;30436;48.888;9.202;2022-07-22T00:10:10;24.60;88.40
44182;DHT22;30436;48.888;9.202;2022-07-22T00:12:37;24.60;91.10
44182;DHT22;30436;48.888;9.202;2022-07-22T00:15:04;24.70;88.70
44182;DHT22;30436;48.888;9.202;2022-07-22T00:17:29;24.60;88.80
44182;DHT22;30436;48.888;9.202;2022-07-22T00:19:55;24.60;89.30
44182;DHT22;30436;48.888;9.202;2022-07-22T00:22:21;24.50;90.60
44182;DHT22;30436;48.888;9.202;2022-07-22T00:24:46;24.50;89.60
44182;DHT22;30436;48.888;9.202;2022-07-22T00:27:12;24.50;92.30
44182;DHT22;30436;48.888;9.202;2022-07-22T00:29:38;24.70;90.30
44182;DHT22;30436;48.888;9.202;2022-07-22T00:32:04;24.60;90.90
44182;DHT22;30436;48.888;9.202;2022-07-22T00:34:29;24.50;90.70
44182;DHT22;30436;48.888;9.202;2022-07-22T00:36:55;24.60;91.10
44182;DHT22;30436;48.888;9.202;2022-07-22T00:39:21;24.60;90.80
44182;DHT22;30436;48.888;9.202;2022-07-22T00:41:48;24.60;90.70
44182;DHT22;30436;48.888;9.202;2022-07-22T00:44:14;24.50;91.40
44182;DHT22;30436;48.888;9.202;2022-07-22T00:46:40;24.50;91.70
44182;DHT22;30436;48.888;9.202;2022-07-22T00:49:08;24.50;92.00
44182;DHT22;30436;48.888;9.202;2022-07-22T00:51:34;24.40;91.80
44182;DHT22;30436;48.888;9.202;2022-07-22T00:54:02;24.50;92.90
44182;DHT22;30436;48.888;9.202;2022-07-22T00:56:29;24.60;92.40
44182;DHT22;30436;48.888;9.202;2022-07-22T00:58:57;24.50;91.60
44182;DHT22;30436;48.888;9.202;2022-07-22T01:01:23;24.60;91.40
44182;DHT22;30436;48.888;9.202;2022-07-22T01:03:49;24.50;91.80
44182;DHT22;30436;48.888;9.202;2022-07-22T01:06:16;24.50;91.90
44182;DHT22;30436;48.888;9.202;2022-07-22T01:08:42;24.50;92.10
44182;DHT22;30436;48.888;9.202;2022-07-22T01:11:10;24.50;91.70
44182;DHT22;30436;48.888;9.202;2022-07-22T01:13:37;24.70;92.60
44182;DHT22;30436;48.888;9.202;2022-07-22T01:16:07;24.50;93.30
44182;DHT22;30436;48.888;9.202;2022-07-22T01:18:34;24.50;92.80
44182;DHT22;30436;48.888;9.202;2022-07-22T01:20:59;24.50;91.20
44182;DHT22;30436;48.888;9.202;2022-07-22T01:23:25;24.40;92.00
44182;DHT22;30436;48.888;9.202;2022-07-22T01:25:51;24.40;92.40
44182;DHT22;30436;48.888;9.202;2022-07-22T01:28:17;24.30;91.20
44182;DHT22;30436;48.888;9.202;2022-07-22T01:30:43;24.10;92.40
44182;DHT22;30436;48.888;9.202;2022-07-22T01:33:09;24.10;92.10
44182;DHT22;30436;48.888;9.202;2022-07-22T01:35:35;24.20;93.00
44182;DHT22;30436;48.888;9.202;2022-07-22T01:38:01;24.10;92.60
44182;DHT22;30436;48.888;9.202;2022-07-22T01:40:26;23.90;92.40
44182;DHT22;30436;48.888;9.202;2022-07-22T01:42:52;23.80;93.20
44182;DHT22;30436;48.888;9.202;2022-07-22T01:45:18;23.70;93.60
44182;DHT22;30436;48.888;9.202;2022-07-22T01:47:43;23.90;95.10
44182;DHT22;30436;48.888;9.202;2022-07-22T01:50:11;23.90;94.80
44182;DHT22;30436;48.888;9.202;2022-07-22T01:52:38;23.90;94.90
44182;DHT22;30436;48.888;9.202;2022-07-22T01:55:06;23.80;94.00
44182;DHT22;30436;48.888;9.202;2022-07-22T01:57:32;23.60;94.10
44182;DHT22;30436;48.888;9.202;2022-07-22T01:59:59;23.60;95.20
44182;DHT22;30436;48.888;9.202;2022-07-22T02:02:25;23.70;95.80
44182;DHT22;30436;48.888;9.202;2022-07-22T02:04:52;23.80;95.30
44182;DHT22;30436;48.888;9.202;2022-07-22T02:07:18;23.80;95.10
44182;DHT22;30436;48.888;9.202;2022-07-22T02:09:44;23.90;96.10
44182;DHT22;30436;48.888;9.202;2022-07-22T02:12:11;23.90;94.90
44182;DHT22;30436;48.888;9.202;2022-07-22T02:14:43;23.90;95.90
44182;DHT22;30436;48.888;9.202;2022-07-22T02:17:09;23.90;95.40
44182;DHT22;30436;48.888;9.202;2022-07-22T02:19:37;23.80;95.40
44182;DHT22;30436;48.888;9.202;2022-07-22T02:22:04;23.90;96.30
44182;DHT22;30436;48.888;9.202;2022-07-22T02:24:29;23.70;94.60
44182;DHT22;30436;48.888;9.202;2022-07-22T02:26:55;23.70;94.60
44182;DHT22;30436;48.888;9.202;2022-07-22T02:29:21;23.70;95.70
44182;DHT22;30436;48.888;9.202;2022-07-22T02:31:47;23.70;96.70
44182;DHT22;30436;48.888;9.202;2022-07-22T02:34:13;23.60;95.40
44182;DHT22;30436;48.888;9.202;2022-07-22T02:36:39;23.60;95.80
44182;DHT22;30436;48.888;9.202;2022-07-22T02:39:04;23.60;96.60
44182;DHT22;30436;48.888;9.202;2022-07-22T02:41:31;23.60;96.10
44182;DHT22;30436;48.888;9.202;2022-07-22T02:43:56;23.50;97.20
44182;DHT22;30436;48.888;9.202;2022-07-22T02:46:24;23.50;95.70
44182;DHT22;30436;48.888;9.202;2022-07-22T02:48:51;23.30;96.90
44182;DHT22;30436;48.888;9.202;2022-07-22T02:51:18;23.40;98.70
44182;DHT22;30436;48.888;9.202;2022-07-22T02:53:44;23.50;98.20
44182;DHT22;30436;48.888;9.202;2022-07-22T02:56:10;23.50;97.40
44182;DHT22;30436;48.888;9.202;2022-07-22T02:58:36;23.50;97.70
44182;DHT22;30436;48.888;9.202;2022-07-22T03:01:01;23.40;99.00
44182;DHT22;30436;48.888;9.202;2022-07-22T03:03:30;23.40;99.60
44182;DHT22;30436;48.888;9.202;2022-07-22T03:05:56;23.40;99.30
44182;DHT22;30436;48.888;9.202;2022-07-22T03:08:32;23.50;99.20
44182;DHT22;30436;48.888;9.202;2022-07-22T03:10:58;23.40;99.90
44182;DHT22;30436;48.888;9.202;2022-07-22T03:13:24;23.40;99.90
44182;DHT22;30436;48.888;9.202;2022-07-22T03:15:50;23.40;99.90
44182;DHT22;30436;48.888;9.202;2022-07-22T03:18:16;23.40;99.90
44182;DHT22;30436;48.888;9.202;2022-07-22T03:20:41;23.30;99.90
44182;DHT22;30436;48.888;9.202;2022-07-22T03:23:07;23.30;99.90
44182;DHT22;30436;48.888;9.202;2022-07-22T03:25:33;23.30;99.90
44182;DHT22;30436;48.888;9.202;2022-07-22T03:28:00;23.30;99.90
44182;DHT22;30436;48.888;9.202;2022-07-22T03:30:26;23.30;99.90
44182;DHT22;30436;48.888;9.202;2022-07-22T03:32:51;23.10;99.90
44182;DHT22;30436;48.888;9.202;2022-07-22T03:35:20;23.20;99.90
44182;DHT22;30436;48.888;9.202;2022-07-22T03:37:46;23.20;99.90
44182;DHT22;30436;48.888;9.202;2022-07-22T03:40:12;23.20;99.90
44182;DHT22;30436;48.888;9.202;2022-07-22T03:42:40;23.10;99.90
44182;DHT22;30436;48.888;9.202;2022-07-22T03:45:06;23.10;99.90
44182;DHT22;30436;48.888;9.202;2022-07-22T03:47:37;23.10;99.90
44182;DHT22;30436;48.888;9.202;2022-07-22T03:50:03;23.10;99.90
44182;DHT22;30436;48.888;9.202;2022-07-22T03:52:29;23.10;99.90
44182;DHT22;30436;48.888;9.202;2022-07-22T03:54:57;23.00;99.90
44182;DHT22;30436;48.888;9.202;2022-07-22T03:57:22;23.10;99.90
44182;DHT22;30436;48.888;9.202;2022-07-22T03:59:57;22.90;99.90
44182;DHT22;30436;48.888;9.202;2022-07-22T04:02:23;23.00;99.90
44182;DHT22;30436;48.888;9.202;2022-07-22T04:04:49;22.90;99.90
44182;DHT22;30436;48.888;9.202;2022-07-22T04:07:17;22.90;99.90
44182;DHT22;30436;48.888;9.202;2022-07-22T04:09:42;23.00;99.90
44182;DHT22;30436;48.888;9.202;2022-07-22T04:12:08;22.80;99.90
44182;DHT22;30436;48.888;9.202;2022-07-22T04:14:45;22.80;99.90
44182;DHT22;30436;48.888;9.202;2022-07-22T04:17:11;22.80;99.90
44182;DHT22;30436;48.888;9.202;2022-07-22T04:19:37;22.80;99.90
44182;DHT22;30436;48.888;9.202;2022-07-22T04:22:13;22.70;99.90
44182;DHT22;30436;48.888;9.202;2022-07-22T04:24:40;22.60;99.90
44182;DHT22;30436;48.888;9.202;2022-07-22T04:27:06;22.60;99.90
44182;DHT22;30436;48.888;9.202;2022-07-22T04:29:36;22.70;99.90
44182;DHT22;30436;48.888;9.202;2022-07-22T04:32:02;22.70;99.90
44182;DHT22;30436;48.888;9.202;2022-07-22T04:34:28;22.60;99.90
44182;DHT22;30436;48.888;9.202;2022-07-22T04:36:57;22.60;99.90
44182;DHT22;30436;48.888;9.202;2022-07-22T04:39:22;22.50;99.90
44182;DHT22;30436;48.888;9.202;2022-07-22T04:41:54;22.50;99.90
44182;DHT22;30436;48.888;9.202;2022-07-22T04:44:21;22.40;99.90
44182;DHT22;30436;48.888;9.202;2022-07-22T04:46:46;22.40;99.90
44182;DHT22;30436;48.888;9.202;2022-07-22T04:49:12;22.40;99.90
44182;DHT22;30436;48.888;9.202;2022-07-22T04:51:39;22.40;99.90
44182;DHT22;30436;48.888;9.202;2022-07-22T04:54:08;22.40;99.90
44182;DHT22;30436;48.888;9.202;2022-07-22T04:56:38;22.40;99.90
44182;DHT22;30436;48.888;9.202;2022-07-22T04:59:04;22.40;99.90
44182;DHT22;30436;48.888;9.202;2022-07-22T05:01:31;22.40;99.90
44182;DHT22;30436;48.888;9.202;2022-07-22T05:03:59;22.40;99.90
44182;DHT22;30436;48.888;9.202;2022-07-22T05:06:24;22.50;99.90
44182;DHT22;30436;48.888;9.202;2022-07-22T05:08:51;22.40;99.90
44182;DHT22;30436;48.888;9.202;2022-07-22T05:11:18;22.40;99.90
44182;DHT22;30436;48.888;9.202;2022-07-22T05:13:44;22.40;99.90
44182;DHT22;30436;48.888;9.202;2022-07-22T05:16:10;22.40;99.90
44182;DHT22;30436;48.888;9.202;2022-07-22T05:18:38;22.50;99.90
44182;DHT22;30436;48.888;9.202;2022-07-22T05:21:06;22.50;99.90
44182;DHT22;30436;48.888;9.202;2022-07-22T05:23:33;22.50;99.90
44182;DHT22;30436;48.888;9.202;2022-07-22T05:25:59;22.40;99.90
44182;DHT22;30436;48.888;9.202;2022-07-22T05:28:25;22.40;99.90
44182;DHT22;30436;48.888;9.202;2022-07-22T05:30:51;22.50;99.90
44182;DHT22;30436;48.888;9.202;2022-07-22T05:33:17;22.60;99.90
44182;DHT22;30436;48.888;9.202;2022-07-22T05:36:06;22.60;99.90
44182;DHT22;30436;48.888;9.202;2022-07-22T05:38:42;22.60;99.90
44182;DHT22;30436;48.888;9.202;2022-07-22T05:41:09;22.60;99.90
44182;DHT22;30436;48.888;9.202;2022-07-22T05:43:35;22.60;99.90
44182;DHT22;30436;48.888;9.202;2022-07-22T05:46:03;22.60;99.90
44182;DHT22;30436;48.888;9.202;2022-07-22T05:48:30;22.60;99.90
44182;DHT22;30436;48.888;9.202;2022-07-22T05:50:56;22.70;99.90
44182;DHT22;30436;48.888;9.202;2022-07-22T05:53:22;22.70;99.90
44182;DHT22;30436;48.888;9.202;2022-07-22T05:55:48;22.70;99.90
44182;DHT22;30436;48.888;9.202;2022-07-22T05:58:14;22.70;99.90
44182;DHT22;30436;48.888;9.202;2022-07-22T06:02:56;22.80;99.90
44182;DHT22;30436;48.888;9.202;2022-07-22T06:05:22;22.80;99.90
44182;DHT22;30436;48.888;9.202;2022-07-22T06:07:48;22.90;99.90
44182;DHT22;30436;48.888;9.202;2022-07-22T06:10:24;22.90;99.90
44182;DHT22;30436;48.888;9.202;2022-07-22T06:12:50;22.90;99.90
44182;DHT22;30436;48.888;9.202;2022-07-22T06:15:16;23.00;99.90
44182;DHT22;30436;48.888;9.202;2022-07-22T06:17:43;23.00;99.90
44182;DHT22;30436;48.888;9.202;2022-07-22T06:20:10;23.00;99.90
44182;DHT22;30436;48.888;9.202;2022-07-22T06:22:40;23.10;99.90
44182;DHT22;30436;48.888;9.202;2022-07-22T06:25:06;23.20;99.90
44182;DHT22;30436;48.888;9.202;2022-07-22T06:27:31;23.20;99.90
44182;DHT22;30436;48.888;9.202;2022-07-22T06:29:58;23.30;99.90
44182;DHT22;30436;48.888;9.202;2022-07-22T06:32:33;23.40;99.90
44182;DHT22;30436;48.888;9.202;2022-07-22T06:34:59;23.30;99.90
44182;DHT22;30436;48.888;9.202;2022-07-22T06:37:38;23.50;99.90
44182;DHT22;30436;48.888;9.202;2022-07-22T06:40:05;23.60;99.90
44182;DHT22;30436;48.888;9.202;2022-07-22T06:42:55;23.60;99.90
44182;DHT22;30436;48.888;9.202;2022-07-22T06:45:35;23.70;99.90
44182;DHT22;30436;48.888;9.202;2022-07-22T06:48:14;23.80;99.90
44182;DHT22;30436;48.888;9.202;2022-07-22T06:50:42;23.90;99.90
44182;DHT22;30436;48.888;9.202;2022-07-22T06:53:14;24.00;99.90
44182;DHT22;30436;48.888;9.202;2022-07-22T07:10:24;24.50;99.90
44182;DHT22;30436;48.888;9.202;2022-07-22T07:13:01;24.70;99.90
44182;DHT22;30436;48.888;9.202;2022-07-22T07:16:05;24.50;99.90
44182;DHT22;30436;48.888;9.202;2022-07-22T07:49:42;25.20;99.90
44182;DHT22;30436;48.888;9.202;2022-07-22T08:00:52;25.40;99.60
44182;DHT22;30436;48.888;9.202;2022-07-22T08:03:27;25.30;99.70
44182;DHT22;30436;48.888;9.202;2022-07-22T08:06:11;25.30;98.50
44182;DHT22;30436;48.888;9.202;2022-07-22T08:08:37;25.20;99.90
44182;DHT22;30436;48.888;9.202;2022-07-22T08:11:16;25.50;99.90
44182;DHT22;30436;48.888;9.202;2022-07-22T08:14:11;25.70;99.80
44182;DHT22;30436;48.888;9.202;2022-07-22T08:17:07;25.70;97.30
44182;DHT22;30436;48.888;9.202;2022-07-22T08:19:48;25.80;98.30
44182;DHT22;30436;48.888;9.202;2022-07-22T08:22:17;25.90;96.30
44182;DHT22;30436;48.888;9.202;2022-07-22T08:24:44;25.80;96.50
44182;DHT22;30436;48.888;9.202;2022-07-22T08:27:14;25.80;97.80
44182;DHT22;30436;48.888;9.202;2022-07-22T08:29:40;25.90;98.60
44182;DHT22;30436;48.888;9.202;2022-07-22T08:32:07;26.10;97.10
44182;DHT22;30436;48.888;9.202;2022-07-22T08:34:34;26.10;97.20
44182;DHT22;30436;48.888;9.202;2022-07-22T08:37:00;26.30;97.80
44182;DHT22;30436;48.888;9.202;2022-07-22T08:39:27;26.40;97.90
44182;DHT22;30436;48.888;9.202;2022-07-22T08:41:54;26.60;96.20
44182;DHT22;30436;48.888;9.202;2022-07-22T08:44:21;26.60;96.10
44182;DHT22;30436;48.888;9.202;2022-07-22T08:46:49;26.70;94.80
44182;DHT22;30436;48.888;9.202;2022-07-22T08:49:18;26.60;96.00
44182;DHT22;30436;48.888;9.202;2022-07-22T08:52:10;26.70;95.80
44182;DHT22;30436;48.888;9.202;2022-07-22T08:54:38;26.90;94.60
44182;DHT22;30436;48.888;9.202;2022-07-22T08:57:05;27.00;94.80
44182;DHT22;30436;48.888;9.202;2022-07-22T08:59:33;27.10;94.90
44182;DHT22;30436;48.888;9.202;2022-07-22T09:02:13;27.10;94.70
44182;DHT22;30436;48.888;9.202;2022-07-22T09:05:04;27.20;93.30
44182;DHT22;30436;48.888;9.202;2022-07-22T09:07:34;27.30;95.00
44182;DHT22;30436;48.888;9.202;2022-07-22T09:10:09;27.40;92.40
44182;DHT22;30436;48.888;9.202;2022-07-22T09:13:02;27.40;92.30
44182;DHT22;30436;48.888;9.202;2022-07-22T09:15:54;27.60;94.00
44182;DHT22;30436;48.888;9.202;2022-07-22T09:18:53;27.80;94.00
44182;DHT22;30436;48.888;9.202;2022-07-22T09:21:31;27.90;92.10
44182;DHT22;30436;48.888;9.202;2022-07-22T09:24:07;28.10;92.20
44182;DHT22;30436;48.888;9.202;2022-07-22T09:26:39;28.20;91.80
44182;DHT22;30436;48.888;9.202;2022-07-22T09:29:23;28.20;90.50
44182;DHT22;30436;48.888;9.202;2022-07-22T09:32:11;28.40;91.80
44182;DHT22;30436;48.888;9.202;2022-07-22T09:35:02;28.50;91.70
44182;DHT22;30436;48.888;9.202;2022-07-22T09:37:30;28.60;87.90
44182;DHT22;30436;48.888;9.202;2022-07-22T09:42:51;28.60;84.40
44182;DHT22;30436;48.888;9.202;2022-07-22T09:45:19;28.80;86.50
44182;DHT22;30436;48.888;9.202;2022-07-22T09:47:46;29.00;87.80
44182;DHT22;30436;48.888;9.202;2022-07-22T09:50:37;29.20;85.60
44182;DHT22;30436;48.888;9.202;2022-07-22T09:53:18;29.30;84.90
44182;DHT22;30436;48.888;9.202;2022-07-22T09:55:57;29.60;81.30
44182;DHT22;30436;48.888;9.202;2022-07-22T09:58:24;29.60;80.90
44182;DHT22;30436;48.888;9.202;2022-07-22T10:00:52;29.60;80.40
44182;DHT22;30436;48.888;9.202;2022-07-22T10:03:29;29.70;81.50
44182;DHT22;30436;48.888;9.202;2022-07-22T10:05:57;29.90;80.80
44182;DHT22;30436;48.888;9.202;2022-07-22T10:08:25;29.90;79.20
44182;DHT22;30436;48.888;9.202;2022-07-22T10:10:52;29.80;76.10
44182;DHT22;30436;48.888;9.202;2022-07-22T10:13:19;29.90;77.80
44182;DHT22;30436;48.888;9.202;2022-07-22T10:15:46;30.10;78.50
44182;DHT22;30436;48.888;9.202;2022-07-22T10:18:17;30.20;73.00
44182;DHT22;30436;48.888;9.202;2022-07-22T10:20:46;30.40;73.70
44182;DHT22;30436;48.888;9.202;2022-07-22T10:23:13;30.40;73.60
44182;DHT22;30436;48.888;9.202;2022-07-22T10:25:50;30.50;72.30
44182;DHT22;30436;48.888;9.202;2022-07-22T10:28:30;30.70;72.70
44182;DHT22;30436;48.888;9.202;2022-07-22T10:31:22;31.00;73.40
44182;DHT22;30436;48.888;9.202;2022-07-22T10:33:53;31.10;72.10
44182;DHT22;30436;48.888;9.202;2022-07-22T10:36:37;31.30;71.00
44182;DHT22;30436;48.888;9.202;2022-07-22T10:39:09;31.60;71.80
44182;DHT22;30436;48.888;9.202;2022-07-22T10:41:41;31.90;70.70
44182;DHT22;30436;48.888;9.202;2022-07-22T10:44:07;32.00;70.20
44182;DHT22;30436;48.888;9.202;2022-07-22T10:46:50;32.40;68.70
44182;DHT22;30436;48.888;9.202;2022-07-22T10:49:19;32.50;69.00
44182;DHT22;30436;48.888;9.202;2022-07-22T10:54:33;33.00;66.90
44182;DHT22;30436;48.888;9.202;2022-07-22T10:57:00;33.20;65.20
44182;DHT22;30436;48.888;9.202;2022-07-22T10:59:26;33.40;63.00
44182;DHT22;30436;48.888;9.202;2022-07-22T11:01:52;33.50;60.80
44182;DHT22;30436;48.888;9.202;2022-07-22T11:04:26;33.50;60.10
44182;DHT22;30436;48.888;9.202;2022-07-22T11:06:55;33.70;62.60
44182;DHT22;30436;48.888;9.202;2022-07-22T11:09:34;34.00;65.40
44182;DHT22;30436;48.888;9.202;2022-07-22T11:12:00;34.20;62.70
44182;DHT22;30436;48.888;9.202;2022-07-22T11:14:30;34.30;60.20
44182;DHT22;30436;48.888;9.202;2022-07-22T11:17:11;34.30;59.00
44182;DHT22;30436;48.888;9.202;2022-07-22T11:19:39;34.20;60.50
44182;DHT22;30436;48.888;9.202;2022-07-22T11:22:07;34.40;62.00
44182;DHT22;30436;48.888;9.202;2022-07-22T11:24:34;34.50;59.00
44182;DHT22;30436;48.888;9.202;2022-07-22T11:27:01;34.50;57.80
44182;DHT22;30436;48.888;9.202;2022-07-22T11:29:31;34.50;60.50
44182;DHT22;30436;48.888;9.202;2022-07-22T11:32:00;34.70;59.50
44182;DHT22;30436;48.888;9.202;2022-07-22T11:34:27;34.80;61.80
44182;DHT22;30436;48.888;9.202;2022-07-22T11:36:54;34.90;58.10
44182;DHT22;30436;48.888;9.202;2022-07-22T11:39:26;34.90;59.50
44182;DHT22;30436;48.888;9.202;2022-07-22T11:41:55;34.80;58.80
44182;DHT22;30436;48.888;9.202;2022-07-22T11:44:26;34.70;58.00
44182;DHT22;30436;48.888;9.202;2022-07-22T11:46:52;34.50;57.40
44182;DHT22;30436;48.888;9.202;2022-07-22T11:49:21;34.60;58.80
44182;DHT22;30436;48.888;9.202;2022-07-22T11:51:47;34.80;58.90
44182;DHT22;30436;48.888;9.202;2022-07-22T11:54:13;34.80;56.90
44182;DHT22;30436;48.888;9.202;2022-07-22T11:56:39;34.90;58.40
44182;DHT22;30436;48.888;9.202;2022-07-22T11:59:06;34.90;58.10
44182;DHT22;30436;48.888;9.202;2022-07-22T12:01:35;35.10;58.40
44182;DHT22;30436;48.888;9.202;2022-07-22T12:04:03;35.30;58.50
44182;DHT22;30436;48.888;9.202;2022-07-22T12:06:30;35.30;56.20
44182;DHT22;30436;48.888;9.202;2022-07-22T12:09:16;35.30;57.10
44182;DHT22;30436;48.888;9.202;2022-07-22T12:11:50;35.50;56.00
44182;DHT22;30436;48.888;9.202;2022-07-22T12:14:18;35.60;54.40
44182;DHT22;30436;48.888;9.202;2022-07-22T12:16:55;35.40;55.40
44182;DHT22;30436;48.888;9.202;2022-07-22T12:19:21;35.30;54.40
44182;DHT22;30436;48.888;9.202;2022-07-22T12:21:53;35.40;55.20
44182;DHT22;30436;48.888;9.202;2022-07-22T12:27:06;34.90;55.30
44182;DHT22;30436;48.888;9.202;2022-07-22T12:32:04;35.60;55.70
44182;DHT22;30436;48.888;9.202;2022-07-22T12:37:34;35.30;53.00
44182;DHT22;30436;48.888;9.202;2022-07-22T12:40:10;35.30;55.00
44182;DHT22;30436;48.888;9.202;2022-07-22T12:43:01;35.20;54.30
44182;DHT22;30436;48.888;9.202;2022-07-22T12:45:28;35.10;54.70
44182;DHT22;30436;48.888;9.202;2022-07-22T12:50:40;35.40;54.80
44182;DHT22;30436;48.888;9.202;2022-07-22T12:53:08;35.40;55.30
44182;DHT22;30436;48.888;9.202;2022-07-22T12:55:40;35.50;53.70
44182;DHT22;30436;48.888;9.202;2022-07-22T12:58:07;35.50;55.50
44182;DHT22;30436;48.888;9.202;2022-07-22T13:00:43;35.60;54.20
44182;DHT22;30436;48.888;9.202;2022-07-22T13:03:09;35.50;56.10
44182;DHT22;30436;48.888;9.202;2022-07-22T13:05:55;35.70;54.40
44182;DHT22;30436;48.888;9.202;2022-07-22T13:08:30;35.60;52.90
44182;DHT22;30436;48.888;9.202;2022-07-22T13:10:59;35.60;53.20
44182;DHT22;30436;48.888;9.202;2022-07-22T13:13:25;35.60;53.80
44182;DHT22;30436;48.888;9.202;2022-07-22T13:15:51;35.40;51.90
44182;DHT22;30436;48.888;9.202;2022-07-22T13:18:18;35.40;53.40
44182;DHT22;30436;48.888;9.202;2022-07-22T13:20:43;35.60;54.80
44182;DHT22;30436;48.888;9.202;2022-07-22T13:23:09;35.80;54.10
44182;DHT22;30436;48.888;9.202;2022-07-22T13:25:35;35.90;53.20
44182;DHT22;30436;48.888;9.202;2022-07-22T13:28:02;36.10;54.30
44182;DHT22;30436;48.888;9.202;2022-07-22T13:30:28;36.20;54.30
44182;DHT22;30436;48.888;9.202;2022-07-22T13:32:59;36.20;53.40
44182;DHT22;30436;48.888;9.202;2022-07-22T13:35:25;36.20;54.30
44182;DHT22;30436;48.888;9.202;2022-07-22T13:37:52;36.20;53.10
44182;DHT22;30436;48.888;9.202;2022-07-22T13:40:17;36.20;53.10
44182;DHT22;30436;48.888;9.202;2022-07-22T13:42:43;36.00;51.90
44182;DHT22;30436;48.888;9.202;2022-07-22T13:45:18;35.80;51.40
44182;DHT22;30436;48.888;9.202;2022-07-22T13:47:45;35.80;52.20
44182;DHT22;30436;48.888;9.202;2022-07-22T13:50:11;35.80;50.80
44182;DHT22;30436;48.888;9.202;2022-07-22T13:52:37;35.90;51.80
44182;DHT22;30436;48.888;9.202;2022-07-22T13:55:04;35.90;53.10
44182;DHT22;30436;48.888;9.202;2022-07-22T13:57:30;35.80;51.40
44182;DHT22;30436;48.888;9.202;2022-07-22T13:59:58;35.80;52.70
44182;DHT22;30436;48.888;9.202;2022-07-22T14:02:24;35.90;52.40
44182;DHT22;30436;48.888;9.202;2022-07-22T14:04:50;35.80;51.10
44182;DHT22;30436;48.888;9.202;2022-07-22T14:07:15;35.70;53.40
44182;DHT22;30436;48.888;9.202;2022-07-22T14:09:41;35.80;54.00
44182;DHT22;30436;48.888;9.202;2022-07-22T14:12:07;35.80;52.50
44182;DHT22;30436;48.888;9.202;2022-07-22T14:14:34;35.90;54.50
44182;DHT22;30436;48.888;9.202;2022-07-22T14:17:00;36.00;54.10
44182;DHT22;30436;48.888;9.202;2022-07-22T14:19:28;36.00;53.00
44182;DHT22;30436;48.888;9.202;2022-07-22T14:21:57;36.00;53.10
44182;DHT22;30436;48.888;9.202;2022-07-22T14:24:23;35.90;52.00
44182;DHT22;30436;48.888;9.202;2022-07-22T14:26:50;35.90;53.00
44182;DHT22;30436;48.888;9.202;2022-07-22T14:29:15;35.80;53.30
44182;DHT22;30436;48.888;9.202;2022-07-22T14:31:41;35.60;51.10
44182;DHT22;30436;48.888;9.202;2022-07-22T14:34:06;35.60;53.60
44182;DHT22;30436;48.888;9.202;2022-07-22T14:36:32;35.60;53.40
44182;DHT22;30436;48.888;9.202;2022-07-22T14:38:58;35.50;54.00
44182;DHT22;30436;48.888;9.202;2022-07-22T14:41:24;35.50;54.20
44182;DHT22;30436;48.888;9.202;2022-07-22T14:43:49;35.50;53.90
44182;DHT22;30436;48.888;9.202;2022-07-22T14:46:15;35.40;54.10
44182;DHT22;30436;48.888;9.202;2022-07-22T14:48:41;35.40;53.70
44182;DHT22;30436;48.888;9.202;2022-07-22T14:51:07;35.30;53.70
44182;DHT22;30436;48.888;9.202;2022-07-22T14:53:32;35.10;53.20
44182;DHT22;30436;48.888;9.202;2022-07-22T14:55:59;35.10;54.70
44182;DHT22;30436;48.888;9.202;2022-07-22T14:58:25;35.10;54.40
44182;DHT22;30436;48.888;9.202;2022-07-22T15:00:50;35.10;54.30
44182;DHT22;30436;48.888;9.202;2022-07-22T15:03:16;35.00;53.50
44182;DHT22;30436;48.888;9.202;2022-07-22T15:05:41;34.80;53.20
44182;DHT22;30436;48.888;9.202;2022-07-22T15:08:08;34.70;53.60
44182;DHT22;30436;48.888;9.202;2022-07-22T15:10:34;34.70;53.20
44182;DHT22;30436;48.888;9.202;2022-07-22T15:12:59;34.60;53.10
44182;DHT22;30436;48.888;9.202;2022-07-22T15:15:25;34.60;53.30
44182;DHT22;30436;48.888;9.202;2022-07-22T15:17:51;34.60;55.20
44182;DHT22;30436;48.888;9.202;2022-07-22T15:20:17;34.60;51.90
44182;DHT22;30436;48.888;9.202;2022-07-22T15:22:43;34.50;54.90
44182;DHT22;30436;48.888;9.202;2022-07-22T15:25:09;34.50;53.60
44182;DHT22;30436;48.888;9.202;2022-07-22T15:27:34;34.70;54.30
44182;DHT22;30436;48.888;9.202;2022-07-22T15:30:05;34.80;54.10
44182;DHT22;30436;48.888;9.202;2022-07-22T15:32:31;34.90;53.30
44182;DHT22;30436;48.888;9.202;2022-07-22T15:34:57;34.90;53.50
44182;DHT22;30436;48.888;9.202;2022-07-22T15:37:23;34.90;53.70
44182;DHT22;30436;48.888;9.202;2022-07-22T15:39:49;34.90;54.70
44182;DHT22;30436;48.888;9.202;2022-07-22T15:42:15;34.80;52.50
44182;DHT22;30436;48.888;9.202;2022-07-22T15:44:41;34.70;53.80
44182;DHT22;30436;48.888;9.202;2022-07-22T15:47:06;34.70;54.50
44182;DHT22;30436;48.888;9.202;2022-07-22T15:49:32;34.60;54.50
44182;DHT22;30436;48.888;9.202;2022-07-22T15:51:57;34.40;54.20
44182;DHT22;30436;48.888;9.202;2022-07-22T15:54:25;34.40;53.60
44182;DHT22;30436;48.888;9.202;2022-07-22T15:56:50;34.20;54.10
44182;DHT22;30436;48.888;9.202;2022-07-22T15:59:16;34.00;54.40
44182;DHT22;30436;48.888;9.202;2022-07-22T16:01:57;34.10;55.50
44182;DHT22;30436;48.888;9.202;2022-07-22T16:04:23;33.90;53.30
44182;DHT22;30436;48.888;9.202;2022-07-22T16:06:49;33.80;53.40
44182;DHT22;30436;48.888;9.202;2022-07-22T16:09:14;33.70;53.50
44182;DHT22;30436;48.888;9.202;2022-07-22T16:11:40;33.70;54.40
44182;DHT22;30436;48.888;9.202;2022-07-22T16:14:06;33.50;55.50
44182;DHT22;30436;48.888;9.202;2022-07-22T16:16:32;33.50;55.20
44182;DHT22;30436;48.888;9.202;2022-07-22T16:18:57;33.50;56.00
44182;DHT22;30436;48.888;9.202;2022-07-22T16:21:23;33.50;55.80
44182;DHT22;30436;48.888;9.202;2022-07-22T16:23:49;33.50;55.70
44182;DHT22;30436;48.888;9.202;2022-07-22T16:26:14;33.40;55.60
44182;DHT22;30436;48.888;9.202;2022-07-22T16:28:40;33.40;55.80
44182;DHT22;30436;48.888;9.202;2022-07-22T16:31:13;33.30;55.60
44182;DHT22;30436;48.888;9.202;2022-07-22T16:33:39;33.30;56.60
44182;DHT22;30436;48.888;9.202;2022-07-22T16:36:05;33.40;57.00
44182;DHT22;30436;48.888;9.202;2022-07-22T16:38:31;33.30;56.10
44182;DHT22;30436;48.888;9.202;2022-07-22T16:40:57;33.30;56.00
44182;DHT22;30436;48.888;9.202;2022-07-22T16:43:23;33.30;56.10
44182;DHT22;30436;48.888;9.202;2022-07-22T16:45:48;33.30;56.30
44182;DHT22;30436;48.888;9.202;2022-07-22T16:48:14;33.30;55.80
44182;DHT22;30436;48.888;9.202;2022-07-22T16:50:40;33.20;55.70
44182;DHT22;30436;48.888;9.202;2022-07-22T16:53:05;33.10;57.70